Time;durP1;ratioP1;P1;durP2;ratioP2;P2;SDS_P1;SDS_P2;PMS_P1;PMS_P2;Temp;Humidity;BMP_temperature;BMP_pressure;BME280_temperature;BME280_humidity;BME280_pressure;Samples;Min_cycle;Max_cycle;Signal;HPM_P1;HPM_P2
2022/12/28 00:01:52;;;;;;;4.22;1.70;;;;;;;6.42;45.93;101464.53;5007449;28;20045;-70
2022/12/28 00:04:21;;;;;;;3.00;1.30;;;;;;;6.43;45.85;101466.28;5004737;28;20066;-70
2022/12/28 00:06:51;;;;;;;4.78;1.58;;;;;;;6.42;45.96;101467.25;5002709;28;20042;-70
2022/12/28 00:09:19;;;;;;;3.53;1.40;;;;;;;6.42;46.05;101465.41;5008003;28;20041;-70
2022/12/28 00:11:47;;;;;;;3.10;1.20;;;;;;;6.43;45.84;101463.56;4990465;28;20050;-70
2022/12/28 00:14:15;;;;;;;3.78;1.50;;;;;;;6.44;45.99;101466.19;5006109;28;20045;-70
2022/12/28 00:16:43;;;;;;;3.33;1.60;;;;;;;6.45;46.10;101467.03;5006672;28;20121;-70
2022/12/28 00:19:14;;;;;;;3.42;1.40;;;;;;;6.46;45.98;101463.34;4990161;28;20120;-70
2022/12/28 00:21:44;;;;;;;2.70;1.38;;;;;;;6.48;45.84;101464.13;5001790;28;20120;-70
2022/12/28 00:24:18;;;;;;;4.18;1.23;;;;;;;6.49;45.89;101459.56;5005722;28;20048;-70
2022/12/28 00:26:46;;;;;;;3.15;1.48;;;;;;;6.48;46.28;101465.97;5004355;28;20267;-70
2022/12/28 00:29:14;;;;;;;3.65;1.50;;;;;;;6.50;46.02;101464.06;5007403;28;20129;-70
2022/12/28 00:31:43;;;;;;;3.40;1.50;;;;;;;6.50;46.34;101447.72;4988966;28;20316;-70
2022/12/28 00:34:11;;;;;;;2.55;1.30;;;;;;;6.51;46.63;101447.66;5006914;28;20093;-70
2022/12/28 00:36:41;;;;;;;3.67;1.30;;;;;;;6.52;46.54;101434.94;5016563;28;20041;-70
2022/12/28 00:39:30;;;;;;;5.10;1.50;;;;;;;6.52;46.46;101413.16;4989441;28;20506;-70
2022/12/28 00:41:59;;;;;;;3.35;1.50;;;;;;;6.53;46.64;101407.63;5008190;28;20037;-69
2022/12/28 00:44:27;;;;;;;3.65;1.48;;;;;;;6.54;46.93;101413.94;5002700;28;20415;-70
2022/12/28 00:46:55;;;;;;;3.05;1.40;;;;;;;6.53;46.65;101404.03;4984861;28;20422;-70
2022/12/28 00:49:23;;;;;;;3.72;1.50;;;;;;;6.54;47.15;101412.09;4987414;28;20503;-70
2022/12/28 00:51:52;;;;;;;3.03;1.30;;;;;;;6.54;47.00;101398.50;4990334;28;20054;-70
2022/12/28 00:54:20;;;;;;;3.60;1.75;;;;;;;6.54;47.14;101392.16;5007159;28;20053;-70
2022/12/28 00:56:49;;;;;;;2.25;1.50;;;;;;;6.56;46.69;101379.38;4989217;28;20042;-70
2022/12/28 00:59:17;;;;;;;2.03;1.30;;;;;;;6.54;46.85;101373.13;5005174;28;20673;-70
2022/12/28 01:01:45;;;;;;;3.53;1.50;;;;;;;6.54;47.22;101365.84;4986888;28;20091;-70
2022/12/28 01:04:13;;;;;;;3.28;1.40;;;;;;;6.53;46.98;101355.94;4986224;28;20046;-70
2022/12/28 01:06:41;;;;;;;3.03;1.38;;;;;;;6.54;47.19;101351.38;4998390;28;20091;-70
2022/12/28 01:09:09;;;;;;;4.05;1.40;;;;;;;6.54;47.06;101340.50;5005808;28;20111;-70
2022/12/28 01:11:37;;;;;;;4.13;1.50;;;;;;;6.54;47.62;101345.94;5004510;28;20038;-70
2022/12/28 01:14:06;;;;;;;4.97;1.35;;;;;;;6.56;47.61;101357.59;5003574;28;20042;-70
2022/12/28 01:16:36;;;;;;;2.53;1.42;;;;;;;6.56;47.65;101352.16;4986311;28;20046;-70
2022/12/28 01:19:07;;;;;;;3.88;1.65;;;;;;;6.56;47.47;101344.88;5005056;28;20052;-70
2022/12/28 01:21:36;;;;;;;3.53;1.27;;;;;;;6.57;47.72;101343.03;5006467;28;20045;-71
2022/12/28 01:24:06;;;;;;;3.13;1.30;;;;;;;6.56;47.41;101339.44;5004670;28;20052;-71
2022/12/28 01:26:34;;;;;;;2.13;1.27;;;;;;;6.56;47.94;101324.97;4984963;28;20045;-71
2022/12/28 01:29:03;;;;;;;2.72;1.33;;;;;;;6.55;47.71;101305.06;4986931;28;20413;-71
2022/12/28 01:31:35;;;;;;;3.63;1.40;;;;;;;6.56;47.96;101314.97;4988578;28;20046;-70
2022/12/28 01:34:03;;;;;;;3.03;1.38;;;;;;;6.56;47.77;101316.81;5005593;28;20046;-70
2022/12/28 01:36:34;;;;;;;3.58;1.38;;;;;;;6.56;47.93;101316.81;5006743;28;20045;-71
2022/12/28 01:39:04;;;;;;;3.00;1.30;;;;;;;6.56;48.14;101309.53;4984140;28;20053;-71
2022/12/28 01:41:36;;;;;;;3.08;1.42;;;;;;;6.57;47.94;101307.69;5006492;28;20117;-71
2022/12/28 01:44:39;;;;;;;2.80;1.10;;;;;;;6.54;48.29;101297.88;5004780;28;20576;-71
2022/12/28 01:47:13;;;;;;;2.88;1.40;;;;;;;6.53;48.24;101295.28;4983858;28;20085;-71
2022/12/28 01:49:46;;;;;;;3.75;1.38;;;;;;;6.56;48.23;101289.63;4983024;28;20038;-71
2022/12/28 01:52:20;;;;;;;3.47;1.40;;;;;;;6.55;48.57;101290.59;5005925;28;20044;-71
2022/12/28 01:54:53;;;;;;;3.53;1.40;;;;;;;6.57;48.47;101285.94;5006401;28;20046;-71
2022/12/28 01:57:26;;;;;;;3.05;1.38;;;;;;;6.59;48.85;101278.56;5006658;28;20081;-70
2022/12/28 02:00:00;;;;;;;2.50;1.13;;;;;;;6.59;48.79;101276.72;4988021;28;20521;-70
2022/12/28 02:02:43;;;;;;;2.95;1.20;;;;;;;6.60;48.56;101272.16;5003924;28;20400;-70
2022/12/28 02:05:12;;;;;;;4.38;1.15;;;;;;;6.60;48.42;101266.72;4982395;28;20097;-70
2022/12/28 02:07:48;;;;;;;3.83;1.33;;;;;;;6.64;48.66;101276.41;5004283;28;20376;-70
2022/12/28 02:10:18;;;;;;;3.28;1.55;;;;;;;6.63;48.71;101259.22;5004299;28;20572;-70
2022/12/28 02:13:06;;;;;;;2.08;1.30;;;;;;;6.64;48.99;101266.41;5002676;28;20509;-70
2022/12/28 02:15:34;;;;;;;2.35;1.20;;;;;;;6.66;48.86;101260.88;4991050;28;20397;-71
2022/12/28 02:18:04;;;;;;;3.00;1.20;;;;;;;6.70;48.75;101248.81;5005552;28;20041;-70
2022/12/28 02:20:39;;;;;;;3.25;1.20;;;;;;;6.71;48.63;101245.97;5004003;23;20045;-74
2022/12/28 02:23:38;;;;;;;2.97;1.50;;;;;;;6.69;48.93;101244.38;5000447;28;20061;-77
2022/12/28 02:26:30;;;;;;;2.47;1.20;;;;;;;6.72;49.21;101246.84;4985531;28;20138;-77
2022/12/28 02:29:16;;;;;;;3.10;1.30;;;;;;;6.71;48.69;101237.81;4987263;28;20124;-76
2022/12/28 02:31:52;;;;;;;2.80;1.20;;;;;;;6.73;49.03;101237.72;4966407;28;20298;-76
2022/12/28 02:34:26;;;;;;;3.38;1.27;;;;;;;6.74;48.85;101237.66;4967820;28;20078;-77
2022/12/28 02:37:01;;;;;;;4.13;1.35;;;;;;;6.75;48.85;101219.50;4967328;28;20043;-76
2022/12/28 02:39:35;;;;;;;2.17;1.20;;;;;;;6.77;48.61;101223.00;4964296;28;20448;-76
2022/12/28 02:42:04;;;;;;;2.50;1.30;;;;;;;6.76;48.60;101221.25;4963840;28;20502;-76
2022/12/28 02:50:08;;;;;;;4.18;1.40;;;;;;;6.78;48.90;101211.13;4980527;28;20105;-76
2022/12/28 02:52:57;;;;;;;2.97;1.10;;;;;;;6.81;49.17;101198.19;4970323;28;20147;-76
2022/12/28 02:58:51;;;;;;;3.15;1.20;;;;;;;6.81;49.13;101190.03;4963385;28;20125;-76
2022/12/28 03:01:36;;;;;;;2.70;1.00;;;;;;;6.82;48.89;101178.19;4950290;28;20429;-76
2022/12/28 03:04:12;;;;;;;3.50;1.20;;;;;;;6.83;49.03;101176.34;4957362;28;20059;-76
2022/12/28 03:09:39;;;;;;;2.75;1.10;;;;;;;6.85;49.01;101165.38;4959084;28;20355;-76
2022/12/28 03:12:13;;;;;;;3.53;1.27;;;;;;;6.86;48.79;101167.13;4962097;28;20043;-76
2022/12/28 03:14:48;;;;;;;1.95;1.10;;;;;;;6.87;48.84;101153.38;4962020;28;20043;-76
2022/12/28 03:31:32;;;;;;;3.08;1.20;;;;;;;6.91;48.91;101119.56;4963646;28;20034;-76
2022/12/28 03:34:08;;;;;;;2.85;1.40;;;;;;;6.93;48.94;101120.34;4963086;28;20084;-77
2022/12/28 03:36:47;;;;;;;2.67;1.17;;;;;;;6.94;49.25;101119.34;4969476;28;20398;-76
2022/12/28 03:39:24;;;;;;;1.80;1.20;;;;;;;6.97;49.20;101124.56;4965573;28;20062;-76
2022/12/28 03:44:54;;;;;;;2.25;1.30;;;;;;;6.99;49.15;101109.03;4961696;28;20047;-77
2022/12/28 03:47:25;;;;;;;1.52;1.00;;;;;;;7.01;49.18;101114.38;4974963;28;20046;-77
2022/12/28 03:49:55;;;;;;;3.45;1.30;;;;;;;7.03;48.98;101096.94;4972507;28;20089;-76
2022/12/28 03:52:23;;;;;;;2.20;1.38;;;;;;;7.05;48.86;101105.00;4962744;28;20043;-75
2022/12/28 03:54:51;;;;;;;2.13;1.20;;;;;;;7.06;49.01;101099.47;4973572;28;20039;-76
2022/12/28 03:57:22;;;;;;;3.03;1.30;;;;;;;7.10;49.25;101091.97;4967129;28;20035;-76
2022/12/28 03:59:50;;;;;;;3.25;1.20;;;;;;;7.09;49.02;101098.38;4965113;28;20046;-75
2022/12/28 04:02:18;;;;;;;2.55;1.25;;;;;;;7.11;49.19;101094.56;4965065;28;20057;-75
2022/12/28 04:04:47;;;;;;;2.55;1.20;;;;;;;7.13;49.19;101087.16;4962845;28;20473;-75
2022/12/28 04:07:16;;;;;;;2.42;1.10;;;;;;;7.15;49.15;101092.50;4989417;28;20068;-75
2022/12/28 04:09:44;;;;;;;3.30;1.17;;;;;;;7.16;48.94;101083.38;4980932;28;20051;-75
2022/12/28 04:12:13;;;;;;;2.10;1.10;;;;;;;7.17;48.88;101082.38;4961045;28;20039;-76
2022/12/28 04:14:59;;;;;;;3.22;1.30;;;;;;;7.17;49.23;101075.09;4966178;28;20121;-76
2022/12/28 04:17:29;;;;;;;2.42;1.30;;;;;;;7.21;48.91;101086.63;4968298;28;20049;-76
2022/12/28 04:19:57;;;;;;;2.10;1.23;;;;;;;7.21;48.77;101078.47;4965513;28;20071;-76
2022/12/28 04:22:26;;;;;;;2.63;1.17;;;;;;;7.25;49.01;101079.13;4958979;28;20492;-76
2022/12/28 04:24:55;;;;;;;3.00;1.10;;;;;;;7.24;49.10;101070.09;4951513;28;20042;-76
2022/12/28 04:27:23;;;;;;;2.03;1.20;;;;;;;7.26;49.00;101072.72;4965858;28;20098;-76
2022/12/28 04:29:54;;;;;;;1.90;1.30;;;;;;;7.27;48.95;101063.56;4946352;28;20046;-76
2022/12/28 04:32:24;;;;;;;2.63;1.23;;;;;;;7.28;48.89;101062.56;4950915;28;20074;-75
2022/12/28 04:34:51;;;;;;;3.38;1.23;;;;;;;7.30;48.87;101064.19;4964543;28;20052;-76
2022/12/28 04:37:19;;;;;;;2.60;1.20;;;;;;;7.30;49.29;101069.66;4952022;28;20049;-76
2022/12/28 04:39:49;;;;;;;2.75;1.15;;;;;;;7.31;49.13;101052.34;4949249;28;20538;-76
2022/12/28 04:42:24;;;;;;;1.70;0.90;;;;;;;7.33;48.98;101057.69;4964269;28;20069;-75
2022/12/28 04:44:52;;;;;;;2.13;1.05;;;;;;;7.33;48.92;101042.22;4959039;28;20054;-76
2022/12/28 04:47:20;;;;;;;2.40;0.98;;;;;;;7.35;49.03;101047.56;4971065;28;20035;-75
2022/12/28 04:49:49;;;;;;;1.95;1.00;;;;;;;7.36;49.15;101039.25;4954965;28;20042;-76
2022/12/28 04:52:17;;;;;;;1.75;1.00;;;;;;;7.37;48.80;101031.97;4952704;28;20092;-76
2022/12/28 04:54:45;;;;;;;2.47;0.98;;;;;;;7.37;49.03;101024.66;4956503;28;20049;-76
2022/12/28 04:57:14;;;;;;;2.60;1.20;;;;;;;7.41;49.18;101028.06;4948652;28;20150;-76
2022/12/28 04:59:42;;;;;;;2.47;1.20;;;;;;;7.40;49.39;101024.47;4962376;28;20039;-76
2022/12/28 05:02:10;;;;;;;3.25;1.10;;;;;;;7.41;49.37;101026.19;4947354;28;20138;-76
2022/12/28 05:04:38;;;;;;;2.63;1.10;;;;;;;7.42;49.11;101024.34;4962039;28;20043;-76
2022/12/28 05:07:06;;;;;;;2.05;0.98;;;;;;;7.44;49.16;101023.25;4969795;28;20069;-75
2022/12/28 05:09:34;;;;;;;2.60;1.10;;;;;;;7.45;49.18;101024.09;4959361;28;20077;-77
2022/12/28 05:12:01;;;;;;;1.23;0.93;;;;;;;7.47;49.29;101033.06;4940647;28;20409;-77
2022/12/28 05:14:31;;;;;;;2.50;1.05;;;;;;;7.49;49.21;101028.38;4950076;28;20470;-76
2022/12/28 05:17:04;;;;;;;2.80;1.20;;;;;;;7.49;49.15;101021.06;4966714;28;20081;-77
2022/12/28 05:19:31;;;;;;;2.30;1.00;;;;;;;7.51;49.43;101027.28;4975744;28;20574;-76
2022/12/28 05:21:59;;;;;;;2.40;1.02;;;;;;;7.54;49.18;101026.19;4963014;28;20125;-76
2022/12/28 05:24:27;;;;;;;3.55;1.30;;;;;;;7.56;49.38;101021.50;4949447;28;20045;-76
2022/12/28 05:26:55;;;;;;;1.45;1.02;;;;;;;7.57;49.66;101007.78;4950599;28;20047;-76
2022/12/28 05:29:23;;;;;;;1.83;1.13;;;;;;;7.60;49.29;101019.44;4963139;28;20236;-77
2022/12/28 05:31:52;;;;;;;3.08;1.50;;;;;;;7.64;49.42;101015.50;4938286;28;20587;-77
2022/12/28 05:34:20;;;;;;;2.03;1.10;;;;;;;7.64;49.33;101007.31;4966571;28;20578;-76
2022/12/28 05:36:48;;;;;;;2.70;1.30;;;;;;;7.67;49.46;101018.00;4968490;28;20043;-76
2022/12/28 05:39:16;;;;;;;2.95;1.10;;;;;;;7.69;49.72;101010.56;4954784;28;20499;-76
2022/12/28 05:41:44;;;;;;;2.75;1.20;;;;;;;7.70;49.73;101009.59;4967768;28;20066;-76
2022/12/28 05:44:12;;;;;;;2.00;1.17;;;;;;;7.73;49.73;100998.47;4942132;28;20054;-77
2022/12/28 05:46:40;;;;;;;2.38;1.10;;;;;;;7.76;49.78;101004.59;4970719;28;20042;-76
2022/12/28 05:49:09;;;;;;;2.28;1.20;;;;;;;7.80;49.55;100980.69;4947885;28;20130;-76
2022/12/28 05:51:37;;;;;;;2.22;1.20;;;;;;;7.81;49.32;100996.06;4952572;28;20140;-76
2022/12/28 05:54:06;;;;;;;2.67;1.10;;;;;;;7.84;49.62;100995.84;4945680;28;20057;-76
2022/12/28 05:56:34;;;;;;;3.15;1.20;;;;;;;7.86;49.55;100988.41;4972653;28;20066;-77
2022/12/28 05:59:04;;;;;;;2.03;1.13;;;;;;;7.89;49.52;100991.78;4945529;28;20059;-77
2022/12/28 06:01:35;;;;;;;2.13;1.00;;;;;;;7.92;49.61;100990.69;4948308;28;20051;-76
2022/12/28 06:04:05;;;;;;;1.85;1.00;;;;;;;7.96;49.47;100986.72;4948169;28;20109;-76
2022/12/28 06:06:35;;;;;;;3.80;1.45;;;;;;;7.99;49.54;100972.03;4952878;28;20046;-77
2022/12/28 06:09:04;;;;;;;2.38;1.00;;;;;;;8.01;49.34;100980.97;4954632;28;20045;-76
2022/12/28 06:11:32;;;;;;;1.65;1.00;;;;;;;8.02;49.41;100964.47;4970000;28;20042;-76
2022/12/28 06:14:02;;;;;;;2.85;1.20;;;;;;;8.05;49.19;100966.97;4964652;28;20426;-77
2022/12/28 06:16:32;;;;;;;2.63;1.23;;;;;;;8.08;49.52;100969.47;4965017;28;20057;-77
2022/12/28 06:19:04;;;;;;;1.42;0.90;;;;;;;8.11;49.23;100960.19;4965846;28;20126;-75
2022/12/28 06:21:35;;;;;;;2.13;1.08;;;;;;;8.12;49.09;100962.78;4970690;28;20049;-76
2022/12/28 06:24:05;;;;;;;3.15;1.15;;;;;;;8.15;49.42;100957.16;4954476;28;20095;-76
2022/12/28 06:26:36;;;;;;;1.58;0.90;;;;;;;8.17;49.19;100957.91;4967497;28;20553;-76
2022/12/28 06:29:04;;;;;;;2.60;1.10;;;;;;;8.19;49.19;100949.59;4944647;28;20747;-76
2022/12/28 06:31:34;;;;;;;2.60;1.10;;;;;;;8.20;49.56;100944.03;4967788;28;20035;-76
2022/12/28 06:34:03;;;;;;;2.92;1.23;;;;;;;8.22;49.63;100938.47;4964142;28;20055;-76
2022/12/28 06:36:35;;;;;;;1.92;1.10;;;;;;;8.24;49.20;100944.69;4977930;28;20105;-77
2022/12/28 06:39:05;;;;;;;2.92;1.17;;;;;;;8.25;49.10;100952.75;4948703;28;20055;-76
2022/12/28 06:41:33;;;;;;;1.83;1.08;;;;;;;8.25;49.42;100947.28;4966707;28;20047;-75
2022/12/28 06:44:01;;;;;;;1.42;0.82;;;;;;;8.28;49.19;100951.63;4962336;28;20069;-75
2022/12/28 06:46:30;;;;;;;2.08;1.00;;;;;;;8.30;49.23;100964.16;4964042;28;20046;-76
2022/12/28 06:48:58;;;;;;;2.38;1.15;;;;;;;8.31;49.33;100955.00;4968521;28;20461;-76
2022/12/28 06:51:28;;;;;;;1.65;1.00;;;;;;;8.32;49.47;100950.41;4972012;28;20047;-76
2022/12/28 06:53:57;;;;;;;1.60;0.90;;;;;;;8.34;49.31;100954.75;4966583;28;20031;-76
2022/12/28 06:56:28;;;;;;;1.80;0.95;;;;;;;8.36;49.11;100957.34;4970079;28;20042;-76
2022/12/28 06:58:55;;;;;;;3.47;0.98;;;;;;;8.36;49.73;100965.53;4968808;28;20050;-76
2022/12/28 07:01:31;;;;;;;2.75;1.08;;;;;;;8.37;49.53;100956.38;4966826;28;20125;-76
2022/12/28 07:04:01;;;;;;;2.63;0.90;;;;;;;8.38;49.48;100955.38;4948572;28;20043;-76
2022/12/28 07:06:30;;;;;;;2.03;1.00;;;;;;;8.39;49.57;100962.59;4948760;28;20518;-75
2022/12/28 07:09:00;;;;;;;2.83;0.95;;;;;;;8.40;49.86;100958.88;4953792;28;20134;-76
2022/12/28 07:11:28;;;;;;;1.92;0.90;;;;;;;8.39;49.68;100965.31;4967835;28;20061;-76
2022/12/28 07:13:56;;;;;;;3.35;1.00;;;;;;;8.40;49.87;100961.59;4946982;28;20427;-76
2022/12/28 07:16:26;;;;;;;1.42;0.80;;;;;;;8.40;49.29;100953.41;4953534;28;20423;-76
2022/12/28 07:18:53;;;;;;;1.98;0.90;;;;;;;8.40;49.78;100963.47;4949377;28;20042;-76
2022/12/28 07:21:24;;;;;;;3.42;1.00;;;;;;;8.42;49.56;100959.63;4972330;28;20042;-75
2022/12/28 07:23:53;;;;;;;2.20;0.90;;;;;;;8.42;49.54;100970.53;4964007;28;20046;-76
2022/12/28 07:26:25;;;;;;;2.42;0.95;;;;;;;8.42;49.91;100947.84;4952834;28;20082;-77
2022/12/28 07:28:56;;;;;;;1.50;0.88;;;;;;;8.41;49.73;100966.06;4947625;28;20591;-76
2022/12/28 07:31:27;;;;;;;2.50;1.00;;;;;;;8.43;49.63;100960.47;4969746;28;20058;-76
2022/12/28 07:33:56;;;;;;;1.17;0.77;;;;;;;8.44;49.85;100962.22;4947816;28;20043;-76
2022/12/28 07:36:26;;;;;;;1.95;0.98;;;;;;;8.44;49.78;100962.22;4955031;28;20049;-76
2022/12/28 07:38:53;;;;;;;1.77;0.90;;;;;;;8.44;50.13;100959.50;4968354;28;20515;-71
2022/12/28 07:41:25;;;;;;;1.48;0.70;;;;;;;8.46;49.82;100952.06;4954907;28;20046;-76
2022/12/28 07:43:53;;;;;;;1.80;0.75;;;;;;;8.45;49.68;100943.00;4961947;28;20101;-70
2022/12/28 07:46:23;;;;;;;0.93;0.70;;;;;;;8.47;49.69;100948.34;4961013;28;20412;-76
2022/12/28 07:48:51;;;;;;;1.48;0.73;;;;;;;8.46;49.69;100950.22;4945374;28;20074;-76
2022/12/28 07:51:22;;;;;;;1.65;0.90;;;;;;;8.48;49.62;100945.50;4954173;28;20134;-76
2022/12/28 07:53:51;;;;;;;1.30;0.60;;;;;;;8.48;49.88;100947.38;4965529;28;20035;-74
2022/12/28 07:56:21;;;;;;;1.48;0.70;;;;;;;8.49;49.98;100949.97;4959864;28;20495;-77
2022/12/28 07:58:52;;;;;;;1.95;0.77;;;;;;;8.51;49.69;100941.66;4968737;28;20077;-76
2022/12/28 08:01:22;;;;;;;1.83;0.80;;;;;;;8.50;49.73;100940.81;4946527;28;20448;-76
2022/12/28 08:03:54;;;;;;;1.75;0.73;;;;;;;8.52;50.06;100941.53;4965854;28;20105;-76
2022/12/28 08:06:23;;;;;;;1.13;0.70;;;;;;;8.50;50.06;100934.50;4943182;28;20138;-76
2022/12/28 08:08:54;;;;;;;1.20;0.60;;;;;;;8.52;50.14;100940.66;4963639;28;20055;-76
2022/12/28 08:11:24;;;;;;;2.03;0.75;;;;;;;8.54;49.75;100939.56;4962958;28;20050;-77
2022/12/28 08:13:55;;;;;;;0.93;0.63;;;;;;;8.55;49.85;100941.31;4964245;28;20042;-76
2022/12/28 08:16:25;;;;;;;1.67;1.23;;;;;;;8.55;49.75;100933.13;4961672;28;20042;-76
2022/12/28 08:18:53;;;;;;;1.65;0.65;;;;;;;8.55;49.77;100938.59;4966284;28;20042;-77
2022/12/28 08:24:14;;;;;;;1.63;0.70;;;;;;;8.58;49.72;100937.50;4997689;28;20090;-69
2022/12/28 08:26:43;;;;;;;1.20;0.60;;;;;;;8.58;49.75;100940.22;4984394;28;20042;-69
2022/12/28 08:29:14;;;;;;;1.30;0.70;;;;;;;8.60;49.79;100936.34;5002915;28;20045;-70
2022/12/28 08:31:43;;;;;;;1.92;0.70;;;;;;;8.60;49.93;100930.91;4999317;28;20069;-70
2022/12/28 08:34:15;;;;;;;0.90;0.70;;;;;;;8.63;50.14;100932.53;5004659;28;20454;-67
2022/12/28 08:36:43;;;;;;;1.15;0.52;;;;;;;8.63;50.24;100929.81;4992405;28;20046;-67
2022/12/28 08:39:11;;;;;;;1.42;0.60;;;;;;;8.64;50.12;100932.41;4998136;28;20056;-67
2022/12/28 08:41:39;;;;;;;0.98;0.75;;;;;;;8.65;49.70;100934.16;4998798;28;20490;-67
2022/12/28 08:44:07;;;;;;;1.95;0.90;;;;;;;8.67;50.13;100939.50;4997045;28;20474;-67
2022/12/28 08:46:36;;;;;;;1.58;0.73;;;;;;;8.69;50.14;100932.91;4994344;28;20478;-68
2022/12/28 08:49:05;;;;;;;1.20;0.60;;;;;;;8.69;50.01;100929.31;4975572;28;20064;-67
2022/12/28 08:51:35;;;;;;;1.75;0.70;;;;;;;8.73;49.86;100932.69;4984144;28;20049;-67
2022/12/28 08:54:03;;;;;;;1.30;0.77;;;;;;;8.72;50.25;100937.28;5003256;28;20056;-68
2022/12/28 08:56:34;;;;;;;3.17;0.63;;;;;;;8.75;50.14;100939.78;4998445;28;20050;-67
2022/12/28 08:59:02;;;;;;;1.58;0.80;;;;;;;8.75;49.81;100939.78;4999654;28;20140;-68
2022/12/28 09:01:32;;;;;;;1.33;0.60;;;;;;;8.77;50.15;100937.75;5000658;28;20316;-68
2022/12/28 09:04:14;;;;;;;0.80;0.50;;;;;;;8.79;50.10;100938.53;5004855;28;20056;-68
2022/12/28 09:06:42;;;;;;;0.77;0.60;;;;;;;8.78;50.32;100925.00;5000993;28;20518;-68
2022/12/28 09:09:12;;;;;;;1.52;0.70;;;;;;;8.81;49.92;100932.94;4996451;28;20451;-68
2022/12/28 09:11:41;;;;;;;1.77;0.65;;;;;;;8.81;49.91;100933.81;5000654;28;20046;-68
2022/12/28 09:14:10;;;;;;;3.60;1.20;;;;;;;8.83;50.01;100929.13;4999859;28;20350;-68
2022/12/28 09:16:47;;;;;;;1.52;0.55;;;;;;;8.83;49.72;100936.44;4999766;28;20124;-69
2022/12/28 09:19:16;;;;;;;1.13;0.60;;;;;;;8.87;50.11;100948.81;4992883;28;20132;-69
2022/12/28 09:21:47;;;;;;;0.98;0.60;;;;;;;8.86;49.99;100937.03;5003078;28;20104;-69
2022/12/28 09:24:16;;;;;;;1.50;0.70;;;;;;;8.87;50.32;100927.00;5004389;28;20054;-69
2022/12/28 09:26:44;;;;;;;1.25;0.70;;;;;;;8.89;50.02;100941.41;4984386;28;20033;-69
2022/12/28 09:29:13;;;;;;;1.55;0.75;;;;;;;8.90;50.03;100933.09;5002261;28;20052;-69
2022/12/28 09:31:42;;;;;;;0.90;0.63;;;;;;;8.92;50.10;100932.94;5001264;28;20038;-69
2022/12/28 09:34:12;;;;;;;1.77;0.80;;;;;;;8.94;49.73;100930.97;4984847;28;20031;-69
2022/12/28 09:37:01;;;;;;;2.05;1.25;;;;;;;8.94;49.73;100936.44;5002583;28;20046;-69
2022/12/28 09:39:29;;;;;;;1.52;0.70;;;;;;;8.96;50.02;100929.88;4999445;28;20132;-69
2022/12/28 09:41:59;;;;;;;0.63;0.50;;;;;;;8.98;49.60;100930.63;5001409;28;20046;-69
2022/12/28 09:44:46;;;;;;;0.93;0.70;;;;;;;9.01;49.66;100933.09;4994302;28;20446;-69
2022/12/28 09:47:24;;;;;;;0.70;0.60;;;;;;;9.02;49.52;100934.81;5002846;28;20045;-68
2022/12/28 09:50:05;;;;;;;0.95;0.55;;;;;;;9.04;49.85;100931.97;5001821;28;20045;-69
2022/12/28 09:52:36;;;;;;;1.33;0.70;;;;;;;9.05;49.72;100940.06;4993986;28;20066;-69
2022/12/28 09:55:10;;;;;;;0.75;0.60;;;;;;;9.07;49.45;100931.75;4985109;28;20128;-68
2022/12/28 09:57:41;;;;;;;0.75;0.50;;;;;;;9.08;49.52;100930.75;5005593;28;20038;-69
2022/12/28 10:00:16;;;;;;;1.40;0.68;;;;;;;9.10;49.72;100940.53;5000246;28;20044;-70
2022/12/28 10:02:48;;;;;;;1.55;0.60;;;;;;;9.12;49.43;100928.63;4996267;28;20510;-70
2022/12/28 10:05:17;;;;;;;1.40;0.60;;;;;;;9.10;49.55;100926.03;4998680;28;20491;-72
2022/12/28 10:07:46;;;;;;;1.33;0.52;;;;;;;9.14;49.66;100919.34;5000946;28;20045;-68
2022/12/28 10:10:17;;;;;;;1.73;0.65;;;;;;;9.16;49.69;100924.69;5001397;28;20050;-70
2022/12/28 10:12:46;;;;;;;1.48;0.70;;;;;;;9.16;49.35;100920.09;5000794;28;20117;-69
2022/12/28 10:15:15;;;;;;;1.65;0.50;;;;;;;9.18;49.34;100918.06;4997932;28;20042;-69
2022/12/28 10:17:44;;;;;;;1.70;0.80;;;;;;;9.19;49.73;100917.09;4997757;28;20074;-68
2022/12/28 10:20:18;;;;;;;1.13;0.70;;;;;;;9.24;49.49;100911.28;5001028;28;20033;-68
2022/12/28 10:22:51;;;;;;;1.08;0.70;;;;;;;9.24;49.63;100923.06;4997074;28;20038;-68
2022/12/28 10:25:22;;;;;;;3.28;0.90;;;;;;;9.27;49.57;100914.59;4997520;28;20463;-69
2022/12/28 10:27:50;;;;;;;1.73;0.70;;;;;;;9.28;49.48;100904.56;5003299;28;20042;-68
2022/12/28 10:30:22;;;;;;;0.68;0.63;;;;;;;9.30;49.41;100917.09;4997133;28;20050;-68
2022/12/28 10:32:53;;;;;;;1.02;0.65;;;;;;;9.32;49.63;100906.94;5002341;28;20128;-69
2022/12/28 10:35:33;;;;;;;2.10;0.70;;;;;;;9.34;49.44;100914.97;4991992;28;20105;-69
2022/12/28 10:38:06;;;;;;;0.93;0.70;;;;;;;9.35;49.03;100900.31;5004315;28;20473;-69
2022/12/28 10:40:38;;;;;;;2.58;0.90;;;;;;;9.37;49.20;100899.22;5001471;28;20113;-69
2022/12/28 10:43:06;;;;;;;1.17;0.88;;;;;;;9.37;49.34;100891.03;5001892;28;20056;-70
2022/12/28 10:45:40;;;;;;;2.42;0.98;;;;;;;9.41;49.28;100888.94;4983497;28;20518;-69
2022/12/28 10:48:14;;;;;;;0.98;0.60;;;;;;;9.43;49.49;100887.81;5005304;28;20060;-68
2022/12/28 10:50:50;;;;;;;1.50;0.90;;;;;;;9.46;49.13;100887.56;4994632;28;20042;-69
2022/12/28 10:53:25;;;;;;;1.00;0.60;;;;;;;9.48;49.13;100878.38;5008490;28;20132;-69
2022/12/28 10:56:14;;;;;;;1.08;0.70;;;;;;;9.49;48.86;100883.72;5000752;28;20120;-73
2022/12/28 10:58:46;;;;;;;2.30;0.90;;;;;;;9.51;49.06;100872.63;5011026;28;20108;-70
2022/12/28 11:01:17;;;;;;;1.08;0.73;;;;;;;9.53;49.16;100865.19;5002077;28;20046;-68
2022/12/28 11:03:57;;;;;;;1.52;0.77;;;;;;;9.53;49.03;100855.13;5006386;28;20503;-70
2022/12/28 11:06:27;;;;;;;1.13;0.70;;;;;;;9.56;49.28;100863.09;4985644;28;20053;-70
2022/12/28 11:09:13;;;;;;;1.52;0.80;;;;;;;9.59;49.02;100851.88;5005109;28;20070;-69
2022/12/28 11:11:42;;;;;;;2.42;1.02;;;;;;;9.58;49.41;100838.34;5004171;28;20038;-70
2022/12/28 11:14:17;;;;;;;1.65;0.98;;;;;;;9.63;48.63;100857.97;5001739;28;20092;-70
2022/12/28 11:16:45;;;;;;;1.42;0.85;;;;;;;9.62;48.79;100858.97;5001177;28;20125;-70
2022/12/28 11:19:13;;;;;;;0.95;0.70;;;;;;;9.63;48.75;100853.38;5005880;28;20133;-70
2022/12/28 11:21:42;;;;;;;1.10;0.80;;;;;;;9.66;49.06;100850.38;5008631;28;20046;-70
2022/12/28 11:24:15;;;;;;;2.28;0.90;;;;;;;9.68;48.66;100853.84;5004902;28;20481;-69
2022/12/28 11:26:45;;;;;;;0.50;0.50;;;;;;;9.66;49.10;100838.59;4994696;28;20042;-71
2022/12/28 11:29:15;;;;;;;1.30;0.80;;;;;;;9.69;48.56;100843.78;5001373;28;20042;-70
2022/12/28 11:31:49;;;;;;;2.35;1.00;;;;;;;9.70;48.52;100846.41;4999790;28;20045;-69
2022/12/28 11:34:20;;;;;;;1.25;0.90;;;;;;;9.71;48.92;100834.47;4987804;28;20046;-69
2022/12/28 11:36:49;;;;;;;1.38;0.85;;;;;;;9.72;48.70;100843.53;5006538;28;20065;-69
2022/12/28 11:39:43;;;;;;;1.35;0.70;;;;;;;9.74;48.84;100826.00;5005662;28;20068;-69
2022/12/28 11:42:12;;;;;;;1.77;1.00;;;;;;;9.73;49.27;100820.69;5007005;28;20076;-70
2022/12/28 11:45:01;;;;;;;1.92;0.90;;;;;;;9.74;48.87;100834.19;5002963;28;20411;-69
2022/12/28 11:47:34;;;;;;;2.33;0.80;;;;;;;9.76;48.96;100843.13;4999828;28;20053;-69
2022/12/28 11:50:20;;;;;;;;;;;;;;;9.51;49.18;100842.59;4998101;28;20149;-69
2022/12/28 11:52:50;;;;;;;1.42;0.75;;;;;;;9.73;48.85;100831.63;5003953;28;20008;-70
2022/12/28 11:56:05;;;;;;;1.50;0.88;;;;;;;9.73;48.13;100815.22;4988466;28;20042;-69
2022/12/28 11:59:02;;;;;;;2.45;1.10;;;;;;;9.76;48.00;100832.22;4996206;28;20124;-69
2022/12/28 12:01:44;;;;;;;1.77;1.05;;;;;;;9.78;47.93;100823.88;5002419;28;20547;-69
2022/12/28 12:04:42;;;;;;;2.25;1.00;;;;;;;9.73;48.21;100816.09;4998526;28;20054;-69
2022/12/28 12:07:46;;;;;;;1.73;0.90;;;;;;;9.78;47.93;100818.41;4997568;28;20088;-69
2022/12/28 12:10:32;;;;;;;1.70;0.90;;;;;;;9.77;47.70;100814.81;5005466;28;20056;-69
2022/12/28 12:13:18;;;;;;;1.70;0.90;;;;;;;9.80;48.18;100809.09;5003710;28;20042;-69
2022/12/28 12:15:48;;;;;;;2.00;0.90;;;;;;;9.79;47.95;100801.91;4993110;28;20038;-69
2022/12/28 12:18:20;;;;;;;1.52;0.90;;;;;;;9.81;47.84;100810.84;4999688;28;20046;-69
2022/12/28 12:20:59;;;;;;;2.13;1.00;;;;;;;9.82;47.48;100801.59;5000647;28;20116;-69
2022/12/28 12:23:40;;;;;;;1.73;0.80;;;;;;;9.83;47.20;100803.34;4999946;28;20146;-69
2022/12/28 12:26:27;;;;;;;1.85;0.98;;;;;;;9.82;47.56;100789.84;4998265;28;20101;-70
2022/12/28 12:29:02;;;;;;;1.30;0.90;;;;;;;9.82;47.40;100787.94;5001694;28;20454;-69